Plainedge, New York
Current Conditions -  °F | °C
As of 11:53 PM on Saturday 20 Dec 2014 (Local Time) from KFRG Reporting Station
Overcast Overcast  
Wind Chill:   Ceiling: 2200
Heat Index:   Visibility: 10mi
Dew Point: -5°   Wind: 3mph
Humidity: 66%   Direction: 330°NNW
Pressure: 30.28"   Gusts: NA
Location:  40.7255°N, 73.5165°W
Report Text: KFRG 210453Z AUTO 33003KT 10SM OVC022 01/M05 A3028 RMK AO2 SLP253 T00061050 400061011
Loading
Personal Weather Stations






























Interactive Weather Map New forecast layout! Learn more

10-Day Weather Forecast

Advertisements
Track Severe Weather on mobile